BTK3411 WADD-WATT
Flight info
| Callsign | BTK3411 |
|---|---|
| Flight time | 1h 15m |
| Altitude | 37000 |
| Route | LEDOM W33 WGP |
| Aircraft | A320/M-SDE3FGHIRWY/LB1 |
Departure
| Time | 2026-05-07 19:19 |
|---|---|
| Airport | Denpasar I Gusti Ngurah Rai International Airport (WADD) |
Arrival
| Time | 2026-05-07 20:35 |
|---|---|
| Airport | El Tari Airport (WATT) |
| Time | Latitude | Longitude | Altitude | Speed | Heading |
|---|---|---|---|---|---|
| 2026-05-07 19:02 | -8.74541 | 115.15889 | 13 ft | 0 kts | 268° |
| 2026-05-07 19:09 | -8.74541 | 115.15894 | 13 ft | 2 kts | 268° |
| 2026-05-07 19:09 | -8.74540 | 115.15908 | 13 ft | 2 kts | 268° |
| 2026-05-07 19:09 | -8.74540 | 115.15923 | 14 ft | 2 kts | 268° |
| 2026-05-07 19:09 | -8.74539 | 115.15939 | 14 ft | 2 kts | 268° |
| 2026-05-07 19:10 | -8.74538 | 115.15955 | 14 ft | 2 kts | 268° |
| 2026-05-07 19:10 | -8.74538 | 115.15970 | 14 ft | 2 kts | 268° |
| 2026-05-07 19:10 | -8.74537 | 115.15985 | 15 ft | 1 kts | 255° |
| 2026-05-07 19:10 | -8.74527 | 115.15995 | 15 ft | 2 kts | 194° |
| 2026-05-07 19:11 | -8.74512 | 115.15994 | 15 ft | 2 kts | 175° |
| 2026-05-07 19:11 | -8.74498 | 115.15994 | 15 ft | 1 kts | 179° |
| 2026-05-07 19:11 | -8.74495 | 115.15994 | 15 ft | 0 kts | 178° |
| 2026-05-07 19:14 | -8.74502 | 115.15994 | 15 ft | 2 kts | 178° |
| 2026-05-07 19:14 | -8.74538 | 115.15995 | 15 ft | 7 kts | 179° |
| 2026-05-07 19:15 | -8.74604 | 115.15997 | 15 ft | 11 kts | 178° |
| 2026-05-07 19:15 | -8.74686 | 115.15990 | 15 ft | 11 kts | 214° |
| 2026-05-07 19:15 | -8.74708 | 115.15906 | 14 ft | 14 kts | 268° |
| 2026-05-07 19:15 | -8.74713 | 115.15794 | 13 ft | 17 kts | 268° |
| 2026-05-07 19:16 | -8.74718 | 115.15665 | 12 ft | 18 kts | 267° |
| 2026-05-07 19:16 | -8.74724 | 115.15528 | 12 ft | 19 kts | 268° |
| 2026-05-07 19:16 | -8.74744 | 115.15405 | 12 ft | 16 kts | 227° |
| 2026-05-07 19:16 | -8.74789 | 115.15389 | 12 ft | 0 kts | 179° |
| 2026-05-07 19:17 | -8.74803 | 115.15389 | 12 ft | 3 kts | 178° |
| 2026-05-07 19:18 | -8.74854 | 115.15391 | 12 ft | 10 kts | 177° |
| 2026-05-07 19:18 | -8.74894 | 115.15413 | 12 ft | 6 kts | 86° |
| 2026-05-07 19:18 | -8.74893 | 115.15424 | 12 ft | 0 kts | 87° |
| 2026-05-07 19:18 | -8.74888 | 115.15562 | 14 ft | 54 kts | 88° |
| 2026-05-07 19:19 | -8.74863 | 115.16194 | 18 ft | 120 kts | 88° |
| 2026-05-07 19:19 | -8.74821 | 115.17236 | 46 ft | 168 kts | 90° |
| 2026-05-07 19:19 | -8.74779 | 115.18430 | 636 ft | 169 kts | 89° |
| 2026-05-07 19:19 | -8.74734 | 115.19630 | 1334 ft | 170 kts | 89° |
| 2026-05-07 19:20 | -8.74703 | 115.20830 | 1982 ft | 172 kts | 90° |
| 2026-05-07 19:20 | -8.74668 | 115.22082 | 2400 ft | 186 kts | 88° |
| 2026-05-07 19:20 | -8.74604 | 115.23484 | 2772 ft | 205 kts | 88° |
| 2026-05-07 19:20 | -8.74532 | 115.25034 | 3127 ft | 228 kts | 88° |
| 2026-05-07 19:21 | -8.74458 | 115.26702 | 3592 ft | 246 kts | 88° |
| 2026-05-07 19:21 | -8.74382 | 115.28495 | 4173 ft | 259 kts | 88° |
| 2026-05-07 19:21 | -8.74306 | 115.30329 | 4969 ft | 262 kts | 88° |
| 2026-05-07 19:21 | -8.74228 | 115.32206 | 5763 ft | 266 kts | 88° |
| 2026-05-07 19:22 | -8.74150 | 115.34081 | 6535 ft | 270 kts | 88° |
| 2026-05-07 19:22 | -8.74070 | 115.36000 | 7267 ft | 275 kts | 88° |
| 2026-05-07 19:22 | -8.73988 | 115.37976 | 7736 ft | 278 kts | 88° |
| 2026-05-07 19:22 | -8.73905 | 115.39962 | 7970 ft | 280 kts | 88° |
| 2026-05-07 19:23 | -8.73823 | 115.41940 | 7993 ft | 280 kts | 88° |
| 2026-05-07 19:23 | -8.73739 | 115.43964 | 8000 ft | 280 kts | 88° |
| 2026-05-07 19:23 | -8.73656 | 115.45952 | 8005 ft | 281 kts | 88° |
| 2026-05-07 19:23 | -8.73573 | 115.47954 | 8230 ft | 288 kts | 88° |
| 2026-05-07 19:24 | -8.73575 | 115.50015 | 9037 ft | 288 kts | 98° |
| 2026-05-07 19:24 | -8.74160 | 115.51955 | 9792 ft | 290 kts | 116° |
| 2026-05-07 19:24 | -8.75261 | 115.53725 | 10424 ft | 296 kts | 124° |
| 2026-05-07 19:24 | -8.76488 | 115.55505 | 10754 ft | 312 kts | 124° |
| 2026-05-07 19:25 | -8.77779 | 115.57369 | 11040 ft | 329 kts | 124° |
| 2026-05-07 19:25 | -8.79132 | 115.59343 | 11314 ft | 346 kts | 124° |
| 2026-05-07 19:25 | -8.80544 | 115.61420 | 11583 ft | 361 kts | 124° |
| 2026-05-07 19:25 | -8.82012 | 115.63590 | 12034 ft | 369 kts | 124° |
| 2026-05-07 19:26 | -8.83468 | 115.65752 | 12616 ft | 373 kts | 124° |
| 2026-05-07 19:26 | -8.84949 | 115.67967 | 13181 ft | 376 kts | 124° |
| 2026-05-07 19:26 | -8.86440 | 115.70200 | 13706 ft | 381 kts | 124° |
| 2026-05-07 19:26 | -8.87964 | 115.72478 | 14236 ft | 385 kts | 124° |
| 2026-05-07 19:27 | -8.89488 | 115.74751 | 14753 ft | 388 kts | 124° |
| 2026-05-07 19:27 | -8.91023 | 115.77039 | 15240 ft | 392 kts | 124° |
| 2026-05-07 19:27 | -8.92586 | 115.79369 | 15716 ft | 396 kts | 123° |
| 2026-05-07 19:27 | -8.93994 | 115.81828 | 16183 ft | 399 kts | 116° |
| 2026-05-07 19:28 | -8.95072 | 115.84470 | 16647 ft | 402 kts | 108° |
| 2026-05-07 19:28 | -8.95839 | 115.87217 | 17073 ft | 406 kts | 104° |
| 2026-05-07 19:28 | -8.96520 | 115.90041 | 17501 ft | 409 kts | 103° |
| 2026-05-07 19:28 | -8.97199 | 115.92897 | 17948 ft | 412 kts | 103° |
| 2026-05-07 19:29 | -8.97891 | 115.95750 | 18388 ft | 415 kts | 103° |
| 2026-05-07 19:29 | -8.98596 | 115.98608 | 18821 ft | 418 kts | 104° |
| 2026-05-07 19:29 | -8.99324 | 116.01515 | 19242 ft | 421 kts | 104° |
| 2026-05-07 19:29 | -9.00057 | 116.04437 | 19663 ft | 424 kts | 104° |
| 2026-05-07 19:30 | -9.00785 | 116.07344 | 20086 ft | 426 kts | 104° |
| 2026-05-07 19:30 | -9.01526 | 116.10307 | 20517 ft | 429 kts | 104° |
| 2026-05-07 19:30 | -9.02263 | 116.13259 | 20939 ft | 432 kts | 104° |
| 2026-05-07 19:30 | -9.03009 | 116.16248 | 21345 ft | 435 kts | 105° |
| 2026-05-07 19:31 | -9.03760 | 116.19258 | 21755 ft | 437 kts | 105° |
| 2026-05-07 19:31 | -9.04518 | 116.22300 | 22167 ft | 440 kts | 105° |
| 2026-05-07 19:31 | -9.05281 | 116.25367 | 22561 ft | 443 kts | 105° |
| 2026-05-07 19:31 | -9.06044 | 116.28432 | 22947 ft | 445 kts | 105° |
| 2026-05-07 19:32 | -9.06807 | 116.31501 | 23320 ft | 448 kts | 105° |
| 2026-05-07 19:32 | -9.07579 | 116.34605 | 23704 ft | 450 kts | 105° |
| 2026-05-07 19:32 | -9.08353 | 116.37721 | 24075 ft | 453 kts | 105° |
| 2026-05-07 19:32 | -9.09134 | 116.40872 | 24437 ft | 455 kts | 105° |
| 2026-05-07 19:33 | -9.09919 | 116.44042 | 24778 ft | 458 kts | 105° |
| 2026-05-07 19:33 | -9.10706 | 116.47184 | 25101 ft | 460 kts | 105° |
| 2026-05-07 19:33 | -9.11509 | 116.50363 | 25425 ft | 463 kts | 105° |
| 2026-05-07 19:33 | -9.12231 | 116.53598 | 25743 ft | 466 kts | 101° |
| 2026-05-07 19:34 | -9.12665 | 116.56929 | 26072 ft | 469 kts | 96° |
| 2026-05-07 19:34 | -9.12775 | 116.60240 | 26373 ft | 472 kts | 90° |
| 2026-05-07 19:34 | -9.12662 | 116.63613 | 26669 ft | 475 kts | 88° |
| 2026-05-07 19:34 | -9.12495 | 116.67019 | 26948 ft | 477 kts | 88° |
| 2026-05-07 19:35 | -9.12322 | 116.70425 | 27224 ft | 479 kts | 88° |
| 2026-05-07 19:35 | -9.12155 | 116.73821 | 27484 ft | 481 kts | 88° |
| 2026-05-07 19:35 | -9.11993 | 116.77248 | 27743 ft | 483 kts | 88° |
| 2026-05-07 19:35 | -9.11834 | 116.80697 | 27992 ft | 485 kts | 88° |
| 2026-05-07 19:36 | -9.11678 | 116.84148 | 28226 ft | 486 kts | 88° |
| 2026-05-07 19:36 | -9.11520 | 116.87618 | 28437 ft | 488 kts | 88° |
| 2026-05-07 19:36 | -9.11361 | 116.91115 | 28680 ft | 489 kts | 88° |
| 2026-05-07 19:36 | -9.11201 | 116.94597 | 28904 ft | 490 kts | 88° |
| 2026-05-07 19:37 | -9.11044 | 116.98071 | 29190 ft | 490 kts | 88° |
| 2026-05-07 19:37 | -9.10922 | 117.01539 | 29498 ft | 488 kts | 90° |
| 2026-05-07 19:37 | -9.10980 | 117.05051 | 29785 ft | 488 kts | 93° |
| 2026-05-07 19:37 | -9.11233 | 117.08499 | 30061 ft | 487 kts | 97° |
| 2026-05-07 19:38 | -9.11675 | 117.11897 | 30343 ft | 485 kts | 100° |
| 2026-05-07 19:38 | -9.12288 | 117.15331 | 30593 ft | 485 kts | 101° |
| 2026-05-07 19:38 | -9.12925 | 117.18703 | 30848 ft | 485 kts | 101° |
| 2026-05-07 19:38 | -9.13573 | 117.22109 | 31110 ft | 484 kts | 101° |
| 2026-05-07 19:39 | -9.14210 | 117.25479 | 31360 ft | 484 kts | 101° |
| 2026-05-07 19:39 | -9.14850 | 117.28883 | 31632 ft | 483 kts | 101° |
| 2026-05-07 19:39 | -9.15478 | 117.32241 | 31889 ft | 483 kts | 101° |
| 2026-05-07 19:39 | -9.15898 | 117.34500 | 32050 ft | 483 kts | 101° |
| 2026-05-07 19:40 | -9.16738 | 117.39015 | 32365 ft | 483 kts | 101° |
| 2026-05-07 19:40 | -9.17363 | 117.42381 | 32631 ft | 482 kts | 101° |
| 2026-05-07 19:40 | -9.17990 | 117.45769 | 32940 ft | 481 kts | 101° |
| 2026-05-07 19:40 | -9.18607 | 117.49098 | 33239 ft | 480 kts | 101° |
| 2026-05-07 19:41 | -9.19228 | 117.52462 | 33565 ft | 479 kts | 101° |
| 2026-05-07 19:41 | -9.19851 | 117.55840 | 33882 ft | 478 kts | 101° |
| 2026-05-07 19:41 | -9.20464 | 117.59165 | 34206 ft | 477 kts | 101° |
| 2026-05-07 19:41 | -9.21079 | 117.62485 | 34536 ft | 475 kts | 101° |
| 2026-05-07 19:42 | -9.21694 | 117.65814 | 34866 ft | 474 kts | 101° |
| 2026-05-07 19:42 | -9.22292 | 117.69139 | 35169 ft | 472 kts | 101° |
| 2026-05-07 19:42 | -9.22879 | 117.72465 | 35391 ft | 473 kts | 101° |
| 2026-05-07 19:42 | -9.23460 | 117.75777 | 35557 ft | 474 kts | 101° |
| 2026-05-07 19:43 | -9.24039 | 117.79092 | 35712 ft | 475 kts | 101° |
| 2026-05-07 19:43 | -9.24627 | 117.82452 | 35847 ft | 476 kts | 101° |
| 2026-05-07 19:43 | -9.25206 | 117.85764 | 35991 ft | 477 kts | 101° |
| 2026-05-07 19:43 | -9.25792 | 117.89120 | 36146 ft | 477 kts | 101° |
| 2026-05-07 19:44 | -9.26379 | 117.92481 | 36291 ft | 478 kts | 101° |
| 2026-05-07 19:44 | -9.26964 | 117.95830 | 36443 ft | 478 kts | 101° |
| 2026-05-07 19:44 | -9.27548 | 117.99178 | 36587 ft | 479 kts | 101° |
| 2026-05-07 19:44 | -9.28133 | 118.02531 | 36700 ft | 479 kts | 101° |
| 2026-05-07 19:45 | -9.28727 | 118.05933 | 36816 ft | 480 kts | 101° |
| 2026-05-07 19:45 | -9.29316 | 118.09315 | 36880 ft | 481 kts | 101° |
| 2026-05-07 19:45 | -9.30487 | 118.16046 | 36892 ft | 481 kts | 101° |
| 2026-05-07 19:46 | -9.31659 | 118.22784 | 36892 ft | 481 kts | 101° |
| 2026-05-07 19:46 | -9.32831 | 118.29544 | 36892 ft | 481 kts | 101° |
| 2026-05-07 19:47 | -9.34001 | 118.36295 | 36893 ft | 482 kts | 101° |
| 2026-05-07 19:47 | -9.35172 | 118.43049 | 36891 ft | 482 kts | 101° |
| 2026-05-07 19:48 | -9.36344 | 118.49826 | 36887 ft | 482 kts | 101° |
| 2026-05-07 19:48 | -9.37506 | 118.56553 | 36887 ft | 482 kts | 101° |
| 2026-05-07 19:49 | -9.38676 | 118.63326 | 36880 ft | 482 kts | 101° |
| 2026-05-07 19:49 | -9.39840 | 118.70104 | 36876 ft | 482 kts | 101° |
| 2026-05-07 19:50 | -9.41002 | 118.76879 | 36874 ft | 482 kts | 101° |
| 2026-05-07 19:50 | -9.42168 | 118.83672 | 36874 ft | 482 kts | 101° |
| 2026-05-07 19:51 | -9.43329 | 118.90443 | 36873 ft | 482 kts | 101° |
| 2026-05-07 19:51 | -9.44501 | 118.97272 | 36875 ft | 483 kts | 101° |
| 2026-05-07 19:52 | -9.45666 | 119.04069 | 36878 ft | 483 kts | 101° |
| 2026-05-07 19:52 | -9.46824 | 119.10838 | 36889 ft | 483 kts | 101° |
| 2026-05-07 19:53 | -9.47991 | 119.17659 | 36902 ft | 483 kts | 101° |
| 2026-05-07 19:53 | -9.49151 | 119.24459 | 36915 ft | 483 kts | 101° |
| 2026-05-07 19:54 | -9.50306 | 119.31239 | 36922 ft | 483 kts | 101° |
| 2026-05-07 19:54 | -9.51472 | 119.38083 | 36920 ft | 484 kts | 101° |
| 2026-05-07 19:55 | -9.52623 | 119.44852 | 36919 ft | 484 kts | 101° |
| 2026-05-07 19:55 | -9.53787 | 119.51699 | 36917 ft | 484 kts | 101° |
| 2026-05-07 19:56 | -9.54939 | 119.58488 | 36920 ft | 484 kts | 101° |
| 2026-05-07 19:56 | -9.56088 | 119.65270 | 36927 ft | 484 kts | 100° |
| 2026-05-07 19:57 | -9.57235 | 119.72087 | 36934 ft | 484 kts | 100° |
| 2026-05-07 19:57 | -9.58388 | 119.78931 | 36940 ft | 484 kts | 100° |
| 2026-05-07 19:58 | -9.59535 | 119.85730 | 36945 ft | 484 kts | 100° |
| 2026-05-07 19:58 | -9.60689 | 119.92584 | 36942 ft | 485 kts | 100° |
| 2026-05-07 19:59 | -9.61835 | 119.99405 | 36933 ft | 485 kts | 100° |
| 2026-05-07 19:59 | -9.62978 | 120.06211 | 36931 ft | 484 kts | 100° |
| 2026-05-07 20:00 | -9.64110 | 120.12985 | 36924 ft | 485 kts | 100° |
| 2026-05-07 20:00 | -9.65255 | 120.19834 | 36915 ft | 485 kts | 100° |
| 2026-05-07 20:01 | -9.66169 | 120.26668 | 36900 ft | 485 kts | 95° |
| 2026-05-07 20:01 | -9.66318 | 120.33598 | 36898 ft | 486 kts | 88° |
| 2026-05-07 20:02 | -9.65659 | 120.40514 | 36899 ft | 486 kts | 82° |
| 2026-05-07 20:02 | -9.64680 | 120.47354 | 36899 ft | 486 kts | 82° |
| 2026-05-07 20:03 | -9.63699 | 120.54222 | 36897 ft | 486 kts | 82° |
| 2026-05-07 20:03 | -9.62736 | 120.61047 | 36897 ft | 486 kts | 82° |
| 2026-05-07 20:04 | -9.61767 | 120.67944 | 36894 ft | 487 kts | 82° |
| 2026-05-07 20:04 | -9.60810 | 120.74791 | 36895 ft | 487 kts | 82° |
| 2026-05-07 20:05 | -9.59846 | 120.81652 | 36896 ft | 487 kts | 81° |
| 2026-05-07 20:05 | -9.58878 | 120.88519 | 36898 ft | 486 kts | 81° |
| 2026-05-07 20:06 | -9.57911 | 120.95361 | 36894 ft | 486 kts | 81° |
| 2026-05-07 20:06 | -9.56941 | 121.02209 | 36894 ft | 486 kts | 82° |
| 2026-05-07 20:07 | -9.55966 | 121.09092 | 36888 ft | 486 kts | 81° |
| 2026-05-07 20:07 | -9.54999 | 121.15913 | 36885 ft | 486 kts | 81° |
| 2026-05-07 20:08 | -9.54019 | 121.22809 | 36880 ft | 487 kts | 81° |
| 2026-05-07 20:08 | -9.53045 | 121.29640 | 36879 ft | 487 kts | 81° |
| 2026-05-07 20:09 | -9.52062 | 121.36528 | 36882 ft | 486 kts | 81° |
| 2026-05-07 20:10 | -9.50598 | 121.46740 | 36883 ft | 486 kts | 81° |
| 2026-05-07 20:10 | -9.49629 | 121.53619 | 36882 ft | 486 kts | 83° |
| 2026-05-07 20:11 | -9.49386 | 121.60484 | 36886 ft | 485 kts | 93° |
| 2026-05-07 20:11 | -9.50269 | 121.67326 | 36889 ft | 485 kts | 103° |
| 2026-05-07 20:12 | -9.52177 | 121.73943 | 36894 ft | 485 kts | 109° |
| 2026-05-07 20:12 | -9.54366 | 121.80438 | 36352 ft | 478 kts | 109° |
| 2026-05-07 20:12 | -9.55446 | 121.83651 | 35429 ft | 480 kts | 109° |
| 2026-05-07 20:13 | -9.56537 | 121.86912 | 34312 ft | 485 kts | 109° |
| 2026-05-07 20:13 | -9.57628 | 121.90185 | 33219 ft | 489 kts | 109° |
| 2026-05-07 20:13 | -9.58720 | 121.93475 | 32163 ft | 493 kts | 109° |
| 2026-05-07 20:13 | -9.59832 | 121.96833 | 31176 ft | 496 kts | 109° |
| 2026-05-07 20:14 | -9.60935 | 122.00174 | 30205 ft | 498 kts | 110° |
| 2026-05-07 20:14 | -9.62049 | 122.03545 | 29203 ft | 500 kts | 110° |
| 2026-05-07 20:14 | -9.63166 | 122.06924 | 28200 ft | 502 kts | 110° |
| 2026-05-07 20:14 | -9.64283 | 122.10293 | 27372 ft | 500 kts | 110° |
| 2026-05-07 20:15 | -9.65400 | 122.13665 | 26665 ft | 495 kts | 110° |
| 2026-05-07 20:15 | -9.66506 | 122.17010 | 26007 ft | 490 kts | 110° |
| 2026-05-07 20:15 | -9.67592 | 122.20293 | 25397 ft | 485 kts | 110° |
| 2026-05-07 20:15 | -9.68667 | 122.23548 | 24795 ft | 480 kts | 110° |
| 2026-05-07 20:16 | -9.69732 | 122.26777 | 24217 ft | 475 kts | 110° |
| 2026-05-07 20:16 | -9.70782 | 122.29962 | 23633 ft | 470 kts | 110° |
| 2026-05-07 20:16 | -9.71825 | 122.33128 | 23074 ft | 465 kts | 109° |
| 2026-05-07 20:16 | -9.72861 | 122.36275 | 22524 ft | 461 kts | 109° |
| 2026-05-07 20:17 | -9.73875 | 122.39359 | 21965 ft | 457 kts | 109° |
| 2026-05-07 20:17 | -9.74886 | 122.42429 | 21403 ft | 453 kts | 109° |
| 2026-05-07 20:17 | -9.75896 | 122.45503 | 20853 ft | 450 kts | 109° |
| 2026-05-07 20:17 | -9.76896 | 122.48546 | 20317 ft | 446 kts | 109° |
| 2026-05-07 20:18 | -9.77879 | 122.51545 | 19769 ft | 442 kts | 109° |
| 2026-05-07 20:18 | -9.78853 | 122.54511 | 19231 ft | 439 kts | 108° |
| 2026-05-07 20:18 | -9.79831 | 122.57484 | 18700 ft | 435 kts | 108° |
| 2026-05-07 20:18 | -9.80796 | 122.60414 | 18185 ft | 431 kts | 108° |
| 2026-05-07 20:19 | -9.81755 | 122.63305 | 17670 ft | 428 kts | 108° |
| 2026-05-07 20:19 | -9.82707 | 122.66180 | 17159 ft | 424 kts | 108° |
| 2026-05-07 20:19 | -9.83644 | 122.69030 | 16656 ft | 420 kts | 108° |
| 2026-05-07 20:19 | -9.84570 | 122.71858 | 16160 ft | 416 kts | 108° |
| 2026-05-07 20:20 | -9.85503 | 122.74700 | 15649 ft | 413 kts | 108° |
| 2026-05-07 20:20 | -9.86409 | 122.77461 | 15376 ft | 401 kts | 108° |
| 2026-05-07 20:20 | -9.87289 | 122.80140 | 15257 ft | 386 kts | 108° |
| 2026-05-07 20:20 | -9.88128 | 122.82693 | 15135 ft | 372 kts | 108° |
| 2026-05-07 20:21 | -9.88944 | 122.85178 | 15035 ft | 358 kts | 108° |
| 2026-05-07 20:21 | -9.89723 | 122.87547 | 14958 ft | 344 kts | 108° |
| 2026-05-07 20:21 | -9.90502 | 122.89837 | 14881 ft | 330 kts | 113° |
| 2026-05-07 20:21 | -9.91612 | 122.91866 | 14715 ft | 321 kts | 127° |
| 2026-05-07 20:22 | -9.93055 | 122.93613 | 14319 ft | 320 kts | 133° |
| 2026-05-07 20:22 | -9.94587 | 122.95303 | 13939 ft | 319 kts | 134° |
| 2026-05-07 20:22 | -9.96110 | 122.96971 | 13572 ft | 317 kts | 133° |
| 2026-05-07 20:22 | -9.97612 | 122.98632 | 13211 ft | 315 kts | 133° |
| 2026-05-07 20:23 | -9.99103 | 123.00292 | 12859 ft | 313 kts | 133° |
| 2026-05-07 20:23 | -10.00597 | 123.01967 | 12494 ft | 311 kts | 133° |
| 2026-05-07 20:23 | -10.02065 | 123.03617 | 12137 ft | 310 kts | 132° |
| 2026-05-07 20:23 | -10.03523 | 123.05259 | 11765 ft | 308 kts | 132° |
| 2026-05-07 20:24 | -10.04969 | 123.06889 | 11417 ft | 306 kts | 132° |
| 2026-05-07 20:24 | -10.06422 | 123.08531 | 11065 ft | 304 kts | 132° |
| 2026-05-07 20:24 | -10.07848 | 123.10141 | 10726 ft | 302 kts | 132° |
| 2026-05-07 20:24 | -10.09257 | 123.11733 | 10385 ft | 299 kts | 132° |
| 2026-05-07 20:25 | -10.10664 | 123.13321 | 10048 ft | 297 kts | 132° |
| 2026-05-07 20:25 | -10.12063 | 123.14885 | 9700 ft | 294 kts | 132° |
| 2026-05-07 20:25 | -10.13466 | 123.16457 | 9368 ft | 292 kts | 131° |
| 2026-05-07 20:25 | -10.14832 | 123.17992 | 9038 ft | 289 kts | 131° |
| 2026-05-07 20:26 | -10.16181 | 123.19516 | 8719 ft | 285 kts | 131° |
| 2026-05-07 20:26 | -10.17525 | 123.21038 | 8404 ft | 282 kts | 130° |
| 2026-05-07 20:26 | -10.18854 | 123.22542 | 8078 ft | 279 kts | 130° |
| 2026-05-07 20:26 | -10.20147 | 123.24004 | 7764 ft | 275 kts | 130° |
| 2026-05-07 20:27 | -10.21450 | 123.25479 | 7437 ft | 272 kts | 130° |
| 2026-05-07 20:27 | -10.22714 | 123.26910 | 7103 ft | 269 kts | 130° |
| 2026-05-07 20:27 | -10.23948 | 123.28362 | 6768 ft | 266 kts | 123° |
| 2026-05-07 20:27 | -10.24545 | 123.30122 | 6413 ft | 260 kts | 90° |
| 2026-05-07 20:28 | -10.24355 | 123.31961 | 6069 ft | 258 kts | 83° |
| 2026-05-07 20:28 | -10.24109 | 123.33759 | 5735 ft | 255 kts | 83° |
| 2026-05-07 20:28 | -10.23889 | 123.35566 | 5405 ft | 252 kts | 84° |
| 2026-05-07 20:28 | -10.23692 | 123.37348 | 5087 ft | 249 kts | 85° |
| 2026-05-07 20:29 | -10.23507 | 123.39124 | 4769 ft | 246 kts | 85° |
| 2026-05-07 20:29 | -10.23318 | 123.40851 | 4466 ft | 243 kts | 83° |
| 2026-05-07 20:29 | -10.22991 | 123.42538 | 4181 ft | 239 kts | 79° |
| 2026-05-07 20:29 | -10.22607 | 123.44196 | 3905 ft | 235 kts | 78° |
| 2026-05-07 20:30 | -10.22229 | 123.45817 | 3664 ft | 230 kts | 79° |
| 2026-05-07 20:30 | -10.21867 | 123.47386 | 3412 ft | 225 kts | 79° |
| 2026-05-07 20:30 | -10.21502 | 123.48944 | 3149 ft | 222 kts | 79° |
| 2026-05-07 20:30 | -10.21138 | 123.50464 | 3035 ft | 210 kts | 79° |
| 2026-05-07 20:31 | -10.20796 | 123.51885 | 2914 ft | 201 kts | 79° |
| 2026-05-07 20:31 | -10.20464 | 123.53265 | 2778 ft | 192 kts | 79° |
| 2026-05-07 20:31 | -10.20151 | 123.54573 | 2555 ft | 187 kts | 79° |
| 2026-05-07 20:31 | -10.19847 | 123.55841 | 2381 ft | 173 kts | 80° |
| 2026-05-07 20:32 | -10.19570 | 123.57001 | 2097 ft | 163 kts | 80° |
| 2026-05-07 20:32 | -10.19309 | 123.58085 | 1875 ft | 151 kts | 82° |
| 2026-05-07 20:32 | -10.19073 | 123.59076 | 1705 ft | 135 kts | 82° |
| 2026-05-07 20:32 | -10.18854 | 123.60000 | 1539 ft | 133 kts | 82° |
| 2026-05-07 20:33 | -10.18635 | 123.60925 | 1374 ft | 134 kts | 81° |
| 2026-05-07 20:33 | -10.18410 | 123.61868 | 1189 ft | 133 kts | 80° |
| 2026-05-07 20:33 | -10.18192 | 123.62779 | 1044 ft | 131 kts | 80° |
| 2026-05-07 20:33 | -10.17976 | 123.63686 | 850 ft | 130 kts | 79° |
| 2026-05-07 20:34 | -10.17740 | 123.64598 | 707 ft | 130 kts | 79° |
| 2026-05-07 20:34 | -10.17532 | 123.65497 | 536 ft | 129 kts | 79° |
| 2026-05-07 20:34 | -10.17329 | 123.66390 | 392 ft | 128 kts | 79° |
| 2026-05-07 20:34 | -10.17137 | 123.67214 | 359 ft | 98 kts | 76° |
| 2026-05-07 20:35 | -10.17015 | 123.67720 | 353 ft | 47 kts | 77° |
| 2026-05-07 20:35 | -10.16958 | 123.67937 | 347 ft | 24 kts | 72° |
| 2026-05-07 20:35 | -10.16942 | 123.68012 | 345 ft | 3 kts | 210° |
| 2026-05-07 20:35 | -10.16958 | 123.67955 | 346 ft | 12 kts | 257° |
| 2026-05-07 20:36 | -10.16982 | 123.67853 | 350 ft | 17 kts | 256° |
| 2026-05-07 20:36 | -10.17017 | 123.67710 | 353 ft | 23 kts | 256° |
| 2026-05-07 20:36 | -10.17060 | 123.67534 | 356 ft | 28 kts | 256° |
| 2026-05-07 20:36 | -10.17110 | 123.67320 | 357 ft | 28 kts | 256° |
| 2026-05-07 20:37 | -10.17124 | 123.67203 | 359 ft | 10 kts | 289° |
| 2026-05-07 20:37 | -10.17068 | 123.67158 | 360 ft | 10 kts | 346° |
| 2026-05-07 20:37 | -10.16991 | 123.67140 | 360 ft | 11 kts | 346° |
| 2026-05-07 20:37 | -10.16942 | 123.67088 | 361 ft | 11 kts | 273° |
| 2026-05-07 20:38 | -10.16958 | 123.67007 | 360 ft | 12 kts | 256° |
| 2026-05-07 20:38 | -10.16978 | 123.66918 | 361 ft | 12 kts | 257° |
| 2026-05-07 20:38 | -10.16977 | 123.66870 | 362 ft | 3 kts | 325° |
| 2026-05-07 20:38 | -10.16949 | 123.66861 | 362 ft | 4 kts | 345° |
| 2026-05-07 20:39 | -10.16935 | 123.66858 | 362 ft | 0 kts | 346° |